createdAt,value
2022-12-04T00:01:25.009Z,-1.36
2022-12-04T00:03:56.020Z,-1.39
2022-12-04T00:06:23.811Z,-1.38
2022-12-04T00:08:51.368Z,-1.42
2022-12-04T00:11:20.633Z,-1.41
2022-12-04T00:13:47.382Z,-1.40
2022-12-04T00:16:17.183Z,-1.34
2022-12-04T00:18:44.291Z,-1.35
2022-12-04T00:21:13.382Z,-1.34
2022-12-04T00:23:40.377Z,-1.39
2022-12-04T00:26:10.715Z,-1.36
2022-12-04T00:28:37.610Z,-1.36
2022-12-04T00:31:09.501Z,-1.31
2022-12-04T00:33:36.631Z,-1.24
2022-12-04T00:36:07.579Z,-1.29
2022-12-04T00:38:34.947Z,-1.30
2022-12-04T00:41:01.676Z,-1.27
2022-12-04T00:43:29.305Z,-1.23
2022-12-04T00:45:56.510Z,-1.28
2022-12-04T00:48:23.440Z,-1.24
2022-12-04T00:50:50.206Z,-1.24
2022-12-04T00:53:16.910Z,-1.24
2022-12-04T00:55:44.643Z,-1.24
2022-12-04T00:58:11.854Z,-1.24
2022-12-04T01:00:41.349Z,-1.24
2022-12-04T01:03:09.260Z,-1.24
2022-12-04T01:05:44.685Z,-1.19
2022-12-04T01:08:12.683Z,-1.18
2022-12-04T01:10:41.217Z,-1.23
2022-12-04T01:13:08.639Z,-1.22
2022-12-04T01:15:39.467Z,-1.23
2022-12-04T01:18:06.677Z,-1.18
2022-12-04T01:20:33.901Z,-1.16
2022-12-04T01:23:00.505Z,-1.12
2022-12-04T01:25:27.099Z,-1.11
2022-12-04T01:27:53.865Z,-1.10
2022-12-04T01:30:20.538Z,-1.13
2022-12-04T01:32:47.172Z,-1.14
2022-12-04T01:35:13.814Z,-1.13
2022-12-04T01:37:40.453Z,-1.17
2022-12-04T01:40:08.057Z,-1.11
2022-12-04T01:42:34.658Z,-1.07
2022-12-04T01:45:32.075Z,-1.07
2022-12-04T01:48:13.478Z,-1.09
2022-12-04T01:50:41.667Z,-1.08
2022-12-04T01:53:08.659Z,-1.03
2022-12-04T01:55:35.316Z,-1.11
2022-12-04T01:58:03.106Z,-1.10
2022-12-04T02:00:31.167Z,-1.04
2022-12-04T02:02:58.942Z,-1.08
2022-12-04T02:05:25.752Z,-1.08
2022-12-04T02:07:57.233Z,-1.09
2022-12-04T02:10:37.642Z,-1.12
2022-12-04T02:13:20.969Z,-1.09
2022-12-04T02:16:12.435Z,-1.08
2022-12-04T02:19:09.796Z,-1.11
2022-12-04T02:21:43.873Z,-1.08
2022-12-04T02:24:25.755Z,-1.07
2022-12-04T02:26:58.349Z,-1.09
2022-12-04T02:29:33.884Z,-1.07
2022-12-04T02:32:15.525Z,-1.06
2022-12-04T02:34:51.321Z,-1.06
2022-12-04T02:37:24.309Z,-1.04
2022-12-04T02:39:55.281Z,-1.04
2022-12-04T02:42:37.016Z,-1.02
2022-12-04T02:45:10.192Z,-1.05
2022-12-04T02:47:40.674Z,-1.11
2022-12-04T02:50:12.852Z,-1.05
2022-12-04T02:52:48.399Z,-1.05
2022-12-04T02:55:21.966Z,-1.08
2022-12-04T02:57:53.331Z,-1.10
2022-12-04T03:00:21.438Z,-1.15
2022-12-04T03:03:04.217Z,-1.15
2022-12-04T03:05:41.269Z,-1.14
2022-12-04T03:08:14.516Z,-1.14
2022-12-04T03:10:47.333Z,-1.11
2022-12-04T03:13:19.658Z,-1.13
2022-12-04T03:16:13.328Z,-1.17
2022-12-04T03:18:43.841Z,-1.18
2022-12-04T03:21:14.438Z,-1.14
2022-12-04T03:24:05.076Z,-1.18
2022-12-04T03:26:46.943Z,-1.17
2022-12-04T03:29:29.387Z,-1.21
2022-12-04T03:32:04.988Z,-1.12
2022-12-04T03:34:38.796Z,-1.12
2022-12-04T03:37:12.205Z,-1.12
2022-12-04T03:40:02.816Z,-1.10
2022-12-04T03:42:42.481Z,-1.16
2022-12-04T03:45:36.738Z,-1.14
2022-12-04T03:48:10.133Z,-1.16
2022-12-04T03:50:56.017Z,-1.22
2022-12-04T03:53:39.190Z,-1.19
2022-12-04T03:56:24.402Z,-1.17
2022-12-04T03:58:59.349Z,-1.12
2022-12-04T04:01:33.152Z,-1.13
2022-12-04T04:04:04.625Z,-1.16
2022-12-04T04:06:40.784Z,-1.18
2022-12-04T04:09:13.041Z,-1.13
2022-12-04T04:11:48.748Z,-1.16
2022-12-04T04:14:50.582Z,-1.17
2022-12-04T04:17:40.846Z,-1.15
2022-12-04T04:20:32.815Z,-1.15
2022-12-04T04:23:21.114Z,-1.12
2022-12-04T04:25:47.994Z,-1.16
2022-12-04T04:28:31.278Z,-1.19
2022-12-04T04:31:12.885Z,-1.14
2022-12-04T04:34:05.553Z,-1.14
2022-12-04T04:37:02.078Z,-1.13
2022-12-04T04:39:39.172Z,-1.13
2022-12-04T04:42:08.908Z,-1.14
2022-12-04T04:44:52.915Z,-1.14
2022-12-04T04:47:35.968Z,-1.15
2022-12-04T04:50:07.098Z,-1.07
2022-12-04T04:52:35.870Z,-1.06
2022-12-04T04:55:03.634Z,-1.14
2022-12-04T04:57:34.039Z,-1.09
2022-12-04T05:00:01.139Z,-1.12
2022-12-04T05:02:28.100Z,-1.10
2022-12-04T05:04:55.789Z,-1.08
2022-12-04T05:07:22.382Z,-1.11
2022-12-04T05:09:49.010Z,-1.08
2022-12-04T05:12:15.592Z,-1.05
2022-12-04T05:14:42.208Z,-1.08
2022-12-04T05:17:12.604Z,-1.05
2022-12-04T05:19:55.287Z,-1.02
2022-12-04T05:22:27.275Z,-1.09
2022-12-04T05:24:54.400Z,-1.07
2022-12-04T05:27:22.726Z,-1.06
2022-12-04T05:29:49.466Z,-1.04
2022-12-04T05:32:16.206Z,-1.06
2022-12-04T05:34:42.909Z,-1.00
2022-12-04T05:37:09.581Z,-1.00
2022-12-04T05:39:36.413Z,-0.98
2022-12-04T05:42:03.216Z,-1.00
2022-12-04T05:44:29.855Z,-0.99
2022-12-04T05:46:56.574Z,-0.97
2022-12-04T05:49:23.377Z,-0.95
2022-12-04T05:51:51.188Z,-0.98
2022-12-04T05:54:19.125Z,-0.99
2022-12-04T05:56:45.925Z,-0.95
2022-12-04T05:59:13.484Z,-0.92
2022-12-04T06:01:40.507Z,-0.93
2022-12-04T06:04:07.500Z,-0.93
2022-12-04T06:06:34.187Z,-0.96
2022-12-04T06:09:01.874Z,-0.91
2022-12-04T06:11:34.513Z,-0.88
2022-12-04T06:14:03.038Z,-0.90
2022-12-04T06:16:31.924Z,-0.89
2022-12-04T06:19:01.075Z,-0.83
2022-12-04T06:21:30.939Z,-0.82
2022-12-04T06:23:58.337Z,-0.82
2022-12-04T06:26:25.493Z,-0.84
2022-12-04T06:28:56.970Z,-0.83
2022-12-04T06:31:25.183Z,-0.82
2022-12-04T06:33:53.999Z,-0.79
2022-12-04T06:36:21.818Z,-0.78
2022-12-04T06:38:50.281Z,-0.76
2022-12-04T06:41:20.525Z,-0.79
2022-12-04T06:43:48.589Z,-0.72
2022-12-04T06:46:18.989Z,-0.72
2022-12-04T06:48:45.922Z,-0.73
2022-12-04T06:51:21.247Z,-0.71
2022-12-04T06:53:48.457Z,-0.70
2022-12-04T06:56:23.908Z,-0.75
2022-12-04T06:58:53.907Z,-0.75
2022-12-04T07:01:23.711Z,-0.75
2022-12-04T07:03:51.901Z,-0.70
2022-12-04T07:06:39.259Z,-0.69
2022-12-04T07:09:11.326Z,-0.68
2022-12-04T07:11:39.312Z,-0.67
2022-12-04T07:14:06.077Z,-0.69
2022-12-04T07:16:40.064Z,-0.66
2022-12-04T07:19:07.503Z,-0.71
2022-12-04T07:21:34.713Z,-0.66
2022-12-04T07:24:01.884Z,-0.65
2022-12-04T07:26:30.502Z,-0.70
2022-12-04T07:28:57.752Z,-0.76
2022-12-04T07:31:26.359Z,-0.70
2022-12-04T07:33:54.522Z,-0.65
2022-12-04T07:36:23.011Z,-0.66
2022-12-04T07:38:49.871Z,-0.66
2022-12-04T07:41:17.551Z,-0.67
2022-12-04T07:43:44.387Z,-0.67
2022-12-04T07:46:15.425Z,-0.63
2022-12-04T07:48:42.527Z,-0.66
2022-12-04T07:51:12.254Z,-0.64
2022-12-04T07:53:39.363Z,-0.60
2022-12-04T07:56:06.704Z,-0.57
2022-12-04T07:58:33.919Z,-0.54
2022-12-04T08:01:16.255Z,-0.60
2022-12-04T08:03:47.981Z,-0.59
2022-12-04T08:06:20.066Z,-0.64
2022-12-04T08:08:47.416Z,-0.63
2022-12-04T08:11:17.264Z,-0.68
2022-12-04T08:13:44.709Z,-0.59
2022-12-04T08:16:12.866Z,-0.64
2022-12-04T08:18:40.427Z,-0.64
2022-12-04T08:21:12.095Z,-0.65
2022-12-04T08:23:40.087Z,-0.68
2022-12-04T08:26:07.528Z,-0.62
2022-12-04T08:28:34.712Z,-0.55
2022-12-04T08:31:06.740Z,-0.58
2022-12-04T08:33:34.458Z,-0.55
2022-12-04T08:36:01.561Z,-0.55
2022-12-04T08:38:28.225Z,-0.53
2022-12-04T08:40:54.858Z,-0.55
2022-12-04T08:43:21.454Z,-0.50
2022-12-04T08:46:07.937Z,-0.50
2022-12-04T08:48:35.089Z,-0.53
2022-12-04T08:51:03.970Z,-0.54
2022-12-04T08:53:31.628Z,-0.53
2022-12-04T08:56:00.935Z,-0.53
2022-12-04T08:58:27.423Z,-0.55
2022-12-04T09:00:54.049Z,-0.48
2022-12-04T09:03:26.079Z,-0.48
2022-12-04T09:06:00.039Z,-0.51
2022-12-04T09:08:26.683Z,-0.45
2022-12-04T09:10:53.406Z,-0.36
2022-12-04T09:13:20.077Z,-0.36
2022-12-04T09:15:46.735Z,-0.40
2022-12-04T09:18:13.410Z,-0.42
2022-12-04T09:20:39.966Z,-0.41
2022-12-04T09:23:06.553Z,-0.36
2022-12-04T09:25:37.021Z,-0.34
2022-12-04T09:28:04.601Z,-0.31
2022-12-04T09:30:31.293Z,-0.36
2022-12-04T09:32:58.086Z,-0.39
2022-12-04T09:35:24.712Z,-0.30
2022-12-04T09:37:51.441Z,-0.39
2022-12-04T09:40:35.528Z,-0.36
2022-12-04T09:43:44.138Z,-0.35
2022-12-04T09:46:19.003Z,-0.34
2022-12-04T09:48:48.738Z,-0.40
2022-12-04T09:51:20.203Z,-0.38
2022-12-04T09:54:23.944Z,-0.37
2022-12-04T09:57:12.391Z,-0.34
2022-12-04T09:59:39.033Z,-0.30
2022-12-04T10:02:32.559Z,-0.32
2022-12-04T10:04:59.532Z,-0.30
2022-12-04T10:07:52.431Z,-0.33
2022-12-04T10:10:40.577Z,-0.41
2022-12-04T10:13:31.813Z,-0.38
2022-12-04T10:16:04.269Z,-0.34
2022-12-04T10:18:50.540Z,-0.32
2022-12-04T10:21:41.761Z,-0.30
2022-12-04T10:24:08.413Z,-0.31
2022-12-04T10:26:41.009Z,-0.30
2022-12-04T10:29:12.578Z,-0.32
2022-12-04T10:31:40.408Z,-0.32
2022-12-04T10:34:16.511Z,-0.32
2022-12-04T10:36:49.175Z,-0.35
2022-12-04T10:39:32.102Z,-0.35
2022-12-04T10:42:25.411Z,-0.33
2022-12-04T10:44:52.790Z,-0.38
2022-12-04T10:47:22.180Z,-0.38
2022-12-04T10:49:48.902Z,-0.41
2022-12-04T10:52:15.487Z,-0.36
2022-12-04T10:54:51.338Z,-0.36
2022-12-04T10:57:18.118Z,-0.36
2022-12-04T10:59:55.071Z,-0.35
2022-12-04T11:02:28.848Z,-0.33
2022-12-04T11:05:22.289Z,-0.32
2022-12-04T11:07:49.430Z,-0.31
2022-12-04T11:10:36.704Z,-0.33
2022-12-04T11:13:15.187Z,-0.38
2022-12-04T11:15:50.606Z,-0.35
2022-12-04T11:18:20.521Z,-0.34
2022-12-04T11:21:08.280Z,-0.31
2022-12-04T11:23:43.490Z,-0.29
2022-12-04T11:26:11.778Z,-0.31
2022-12-04T11:28:42.456Z,-0.35
2022-12-04T11:31:16.677Z,-0.31
2022-12-04T11:34:02.240Z,-0.33
2022-12-04T11:36:40.587Z,-0.28
2022-12-04T11:39:13.330Z,-0.26
2022-12-04T11:41:40.518Z,-0.28
2022-12-04T11:44:24.993Z,-0.29
2022-12-04T11:46:54.984Z,-0.30
2022-12-04T11:49:23.472Z,-0.31
2022-12-04T11:52:29.971Z,-0.34
2022-12-04T11:55:07.265Z,-0.32
2022-12-04T11:57:45.500Z,-0.29
2022-12-04T12:00:18.077Z,-0.28
2022-12-04T12:03:11.301Z,-0.28
2022-12-04T12:06:00.437Z,-0.28
2022-12-04T12:08:55.305Z,-0.27
2022-12-04T12:11:25.615Z,-0.27
2022-12-04T12:13:59.145Z,-0.27
2022-12-04T12:16:41.840Z,-0.34
2022-12-04T12:19:43.706Z,-0.28
2022-12-04T12:22:34.485Z,-0.24
2022-12-04T12:25:22.379Z,-0.20
2022-12-04T12:28:10.104Z,-0.24
2022-12-04T12:31:15.150Z,-0.16
2022-12-04T12:34:27.535Z,-0.19
2022-12-04T12:37:00.531Z,-0.21
2022-12-04T12:39:53.978Z,-0.23
2022-12-04T12:42:30.855Z,-0.24
2022-12-04T12:45:04.609Z,-0.24
2022-12-04T12:47:39.780Z,-0.23
2022-12-04T12:50:21.270Z,-0.23
2022-12-04T12:52:58.894Z,-0.27
2022-12-04T12:55:41.235Z,-0.29
2022-12-04T12:58:26.177Z,-0.39
2022-12-04T13:01:02.401Z,-0.33
2022-12-04T13:03:53.766Z,-0.36
2022-12-04T13:06:29.709Z,-0.35
2022-12-04T13:09:11.581Z,-0.36
2022-12-04T13:11:39.280Z,-0.40
2022-12-04T13:14:06.203Z,-0.33
2022-12-04T13:16:41.809Z,-0.31
2022-12-04T13:19:08.618Z,-0.29
2022-12-04T13:21:55.536Z,-0.31
2022-12-04T13:24:44.274Z,-0.32
2022-12-04T13:27:56.724Z,-0.35
2022-12-04T13:30:27.521Z,-0.33
2022-12-04T13:32:54.165Z,-0.35
2022-12-04T13:35:32.876Z,-0.31
2022-12-04T13:38:17.857Z,-0.35
2022-12-04T13:40:54.311Z,-0.33
2022-12-04T13:43:44.527Z,-0.34
2022-12-04T13:46:49.423Z,-0.30
2022-12-04T13:49:16.043Z,-0.27
2022-12-04T13:51:44.225Z,-0.28
2022-12-04T13:54:10.831Z,-0.21
2022-12-04T13:56:42.470Z,-0.16
2022-12-04T13:59:27.317Z,-0.17
2022-12-04T14:02:07.922Z,-0.25
2022-12-04T14:04:46.359Z,-0.31
2022-12-04T14:07:26.810Z,-0.27
2022-12-04T14:09:55.517Z,-0.25
2022-12-04T14:12:29.559Z,-0.23
2022-12-04T14:15:09.069Z,-0.29
2022-12-04T14:17:38.647Z,-0.27
2022-12-04T14:20:22.019Z,-0.24
2022-12-04T14:22:49.116Z,-0.26
2022-12-04T14:25:15.676Z,-0.22
2022-12-04T14:27:42.167Z,-0.16
2022-12-04T14:30:28.551Z,-0.23
2022-12-04T14:33:06.596Z,-0.23
2022-12-04T14:35:33.710Z,-0.26
2022-12-04T14:38:04.018Z,-0.21
2022-12-04T14:40:43.660Z,-0.23
2022-12-04T14:43:21.997Z,-0.24
2022-12-04T14:45:48.598Z,-0.25
2022-12-04T14:48:47.499Z,-0.30
2022-12-04T14:51:41.961Z,-0.23
2022-12-04T14:54:31.297Z,-0.25
2022-12-04T14:57:00.839Z,-0.31
2022-12-04T14:59:52.491Z,-0.26
2022-12-04T15:02:39.617Z,-0.30
2022-12-04T15:05:24.714Z,-0.31
2022-12-04T15:07:56.453Z,-0.31
2022-12-04T15:10:46.830Z,-0.27
2022-12-04T15:13:21.389Z,-0.30
2022-12-04T15:15:48.725Z,-0.32
2022-12-04T15:18:18.157Z,-0.27
2022-12-04T15:20:50.487Z,-0.29
2022-12-04T15:23:22.035Z,-0.27
2022-12-04T15:25:54.728Z,-0.28
2022-12-04T15:28:29.049Z,-0.26
2022-12-04T15:30:58.121Z,-0.26
2022-12-04T15:33:29.582Z,-0.28
2022-12-04T15:36:09.992Z,-0.24
2022-12-04T15:38:36.881Z,-0.25
2022-12-04T15:41:03.508Z,-0.24
2022-12-04T15:43:41.627Z,-0.24
2022-12-04T15:46:36.093Z,-0.22
2022-12-04T15:49:07.710Z,-0.26
2022-12-04T15:51:34.636Z,-0.31
2022-12-04T15:54:03.244Z,-0.28
2022-12-04T15:56:30.055Z,-0.26
2022-12-04T15:59:00.961Z,-0.26
2022-12-04T16:01:37.540Z,-0.27
2022-12-04T16:04:04.344Z,-0.35
2022-12-04T16:06:33.377Z,-0.33
2022-12-04T16:09:13.076Z,-0.27
2022-12-04T16:11:41.051Z,-0.27
2022-12-04T16:14:18.121Z,-0.28
2022-12-04T16:16:50.708Z,-0.28
2022-12-04T16:19:39.317Z,-0.31
2022-12-04T16:22:21.642Z,-0.33
2022-12-04T16:24:48.463Z,-0.31
2022-12-04T16:27:17.908Z,-0.31
2022-12-04T16:29:45.560Z,-0.31
2022-12-04T16:32:17.271Z,-0.26
2022-12-04T16:34:44.073Z,-0.31
2022-12-04T16:37:13.684Z,-0.33
2022-12-04T16:39:41.644Z,-0.33
2022-12-04T16:42:22.804Z,-0.37
2022-12-04T16:44:49.919Z,-0.33
2022-12-04T16:47:17.382Z,-0.35
2022-12-04T16:49:47.079Z,-0.34
2022-12-04T16:52:14.047Z,-0.27
2022-12-04T16:54:40.976Z,-0.33
2022-12-04T16:57:08.597Z,-0.34
2022-12-04T16:59:35.630Z,-0.33
2022-12-04T17:02:03.909Z,-0.33
2022-12-04T17:04:31.324Z,-0.34
2022-12-04T17:06:57.991Z,-0.35
2022-12-04T17:09:24.792Z,-0.30
2022-12-04T17:11:51.499Z,-0.33
2022-12-04T17:14:18.324Z,-0.30
2022-12-04T17:16:47.771Z,-0.32
2022-12-04T17:19:14.516Z,-0.33
2022-12-04T17:21:41.753Z,-0.37
2022-12-04T17:24:08.712Z,-0.35
2022-12-04T17:26:35.555Z,-0.29
2022-12-04T17:29:02.519Z,-0.29
2022-12-04T17:31:29.323Z,-0.30
2022-12-04T17:33:57.025Z,-0.30
2022-12-04T17:36:26.273Z,-0.29
2022-12-04T17:38:57.879Z,-0.31
2022-12-04T17:41:25.395Z,-0.28
2022-12-04T17:43:52.068Z,-0.29
2022-12-04T17:46:21.711Z,-0.26
2022-12-04T17:48:49.233Z,-0.32
2022-12-04T17:51:22.718Z,-0.26
2022-12-04T17:53:49.930Z,-0.25
2022-12-04T17:56:20.016Z,-0.24
2022-12-04T17:58:47.826Z,-0.23
2022-12-04T18:01:20.963Z,-0.25
2022-12-04T18:03:52.593Z,-0.24
2022-12-04T18:06:45.739Z,-0.24
2022-12-04T18:09:15.590Z,-0.27
2022-12-04T18:11:46.842Z,-0.25
2022-12-04T18:14:17.739Z,-0.21
2022-12-04T18:16:46.999Z,-0.24
2022-12-04T18:19:14.446Z,-0.26
2022-12-04T18:21:41.515Z,-0.23
2022-12-04T18:24:08.561Z,-0.29
2022-12-04T18:26:40.612Z,-0.26
2022-12-04T18:29:08.815Z,-0.23
2022-12-04T18:31:35.752Z,-0.18
2022-12-04T18:34:02.433Z,-0.25
2022-12-04T18:36:30.850Z,-0.19
2022-12-04T18:39:00.613Z,-0.25
2022-12-04T18:41:28.695Z,-0.26
2022-12-04T18:43:57.075Z,-0.26
2022-12-04T18:46:24.531Z,-0.26
2022-12-04T18:48:54.349Z,-0.26
2022-12-04T18:51:32.908Z,-0.26
2022-12-04T18:54:03.685Z,-0.26
2022-12-04T18:56:32.333Z,-0.25
2022-12-04T18:59:05.580Z,-0.25
2022-12-04T19:01:32.388Z,-0.22
2022-12-04T19:04:01.874Z,-0.16
2022-12-04T19:06:33.393Z,-0.23
2022-12-04T19:09:02.625Z,-0.22
2022-12-04T19:11:29.256Z,-0.21
2022-12-04T19:13:55.932Z,-0.21
2022-12-04T19:16:22.718Z,-0.25
2022-12-04T19:18:49.426Z,-0.28
2022-12-04T19:21:17.578Z,-0.23
2022-12-04T19:23:50.881Z,-0.21
2022-12-04T19:26:18.216Z,-0.22
2022-12-04T19:28:44.916Z,-0.16
2022-12-04T19:31:20.712Z,-0.19
2022-12-04T19:33:47.909Z,-0.20
2022-12-04T19:36:14.682Z,-0.16
2022-12-04T19:38:42.650Z,-0.15
2022-12-04T19:41:13.202Z,-0.18
2022-12-04T19:43:43.149Z,-0.15
2022-12-04T19:46:12.446Z,-0.18
2022-12-04T19:48:39.187Z,-0.20
2022-12-04T19:51:12.175Z,-0.16
2022-12-04T19:53:41.101Z,-0.14
2022-12-04T19:56:16.267Z,-0.17
2022-12-04T19:58:43.109Z,-0.11
2022-12-04T20:01:14.195Z,-0.12
2022-12-04T20:03:41.137Z,-0.13
2022-12-04T20:06:18.051Z,-0.11
2022-12-04T20:08:46.066Z,-0.09
2022-12-04T20:11:15.873Z,-0.14
2022-12-04T20:13:43.837Z,-0.09
2022-12-04T20:16:12.506Z,-0.09
2022-12-04T20:18:40.309Z,-0.09
2022-12-04T20:21:11.166Z,-0.11
2022-12-04T20:23:43.319Z,-0.05
2022-12-04T20:26:13.010Z,-0.06
2022-12-04T20:28:40.613Z,-0.02
2022-12-04T20:31:25.900Z,-0.04
2022-12-04T20:33:53.825Z,-0.04
2022-12-04T20:36:22.175Z,-0.01
2022-12-04T20:38:49.564Z,0.00
2022-12-04T20:41:16.490Z,-0.01
2022-12-04T20:43:43.945Z,-0.02
2022-12-04T20:46:24.389Z,-0.08
2022-12-04T20:48:53.493Z,-0.06
2022-12-04T20:51:31.611Z,-0.05
2022-12-04T20:53:59.958Z,-0.02
2022-12-04T20:56:33.429Z,-0.03
2022-12-04T20:59:02.309Z,0.03
2022-12-04T21:01:29.935Z,0.02
2022-12-04T21:03:58.906Z,-0.01
2022-12-04T21:06:34.920Z,0.04
2022-12-04T21:09:07.333Z,0.00
2022-12-04T21:11:39.965Z,0.00
2022-12-04T21:14:30.943Z,0.03
2022-12-04T21:16:58.044Z,0.00
2022-12-04T21:19:25.400Z,0.04
2022-12-04T21:21:52.407Z,0.00
2022-12-04T21:24:21.386Z,0.07
2022-12-04T21:26:48.041Z,-0.01
2022-12-04T21:29:15.784Z,-0.04
2022-12-04T21:31:42.586Z,0.00
2022-12-04T21:34:12.456Z,0.02
2022-12-04T21:36:39.562Z,0.01
2022-12-04T21:39:06.667Z,0.05
2022-12-04T21:41:52.446Z,0.03
2022-12-04T21:44:20.510Z,0.05
2022-12-04T21:46:48.034Z,0.10
2022-12-04T21:49:15.301Z,-0.03
2022-12-04T21:51:58.916Z,0.07
2022-12-04T21:54:29.411Z,0.07
2022-12-04T21:56:56.958Z,0.04
2022-12-04T21:59:25.400Z,0.09
2022-12-04T22:01:52.891Z,0.03
2022-12-04T22:04:19.641Z,0.06
2022-12-04T22:06:46.217Z,0.02
2022-12-04T22:09:13.293Z,0.09
2022-12-04T22:11:44.514Z,0.13
2022-12-04T22:14:12.491Z,0.04
2022-12-04T22:16:42.706Z,0.05
2022-12-04T22:19:11.626Z,0.05
2022-12-04T22:21:38.856Z,0.10
2022-12-04T22:24:05.940Z,0.07
2022-12-04T22:26:33.353Z,0.11
2022-12-04T22:29:00.426Z,0.11
2022-12-04T22:31:28.959Z,0.11
2022-12-04T22:33:58.151Z,0.07
2022-12-04T22:36:27.483Z,0.11
2022-12-04T22:39:10.797Z,0.04
2022-12-04T22:41:38.586Z,0.05
2022-12-04T22:44:05.713Z,0.00
2022-12-04T22:46:32.921Z,0.03
2022-12-04T22:49:00.059Z,0.10
2022-12-04T22:51:27.383Z,0.13
2022-12-04T22:53:55.749Z,0.15
2022-12-04T22:56:25.377Z,0.12
2022-12-04T22:58:52.772Z,0.05
2022-12-04T23:01:24.367Z,0.04
2022-12-04T23:03:51.593Z,0.04
2022-12-04T23:06:23.307Z,0.14
2022-12-04T23:08:57.427Z,0.09
2022-12-04T23:11:25.137Z,0.13
2022-12-04T23:14:02.765Z,0.10
2022-12-04T23:16:31.781Z,0.12
2022-12-04T23:18:58.917Z,0.10
2022-12-04T23:21:26.215Z,0.13
2022-12-04T23:23:54.920Z,0.12
2022-12-04T23:26:25.316Z,0.12
2022-12-04T23:28:52.124Z,0.03
2022-12-04T23:31:18.960Z,0.14
2022-12-04T23:33:45.603Z,0.14
2022-12-04T23:36:13.472Z,0.21
2022-12-04T23:38:41.558Z,0.22
2022-12-04T23:41:12.288Z,0.16
2022-12-04T23:43:40.348Z,0.16
2022-12-04T23:46:11.358Z,0.16
2022-12-04T23:48:39.112Z,0.12
2022-12-04T23:51:06.145Z,0.12
2022-12-04T23:53:32.720Z,0.16
2022-12-04T23:56:09.847Z,0.18
2022-12-04T23:58:37.543Z,0.19
